Time;durP1;ratioP1;P1;durP2;ratioP2;P2;SDS_P1;SDS_P2;PMS_P1;PMS_P2;Temp;Humidity;BMP_temperature;BMP_pressure;BME280_temperature;BME280_humidity;BME280_pressure;Samples;Min_cycle;Max_cycle;Signal;HPM_P1;HPM_P2
2021/12/16 00:09:18;;;;;;;3.42;1.23;;;10.40;99.90;;;;;;5052749;28;20497;-71
2021/12/16 00:33:17;;;;;;;3.05;1.45;;;10.20;99.90;;;;;;5052824;28;20033;-71
2021/12/16 00:35:47;;;;;;;5.10;1.38;;;10.10;99.90;;;;;;5052412;28;20039;-71
2021/12/16 00:38:14;;;;;;;4.85;1.55;;;10.10;99.90;;;;;;5052918;28;20223;-71
2021/12/16 00:40:42;;;;;;;5.22;1.10;;;10.10;99.90;;;;;;5052692;28;20021;-71
2021/12/16 00:43:22;;;;;;;2.33;1.00;;;10.10;99.90;;;;;;5034422;28;20132;-71
2021/12/16 00:56:02;;;;;;;3.40;1.50;;;10.10;99.90;;;;;;5052566;28;20047;-71
2021/12/16 00:58:39;;;;;;;5.40;1.35;;;10.10;99.90;;;;;;5052662;28;20041;-71
2021/12/16 01:01:21;;;;;;;5.47;1.45;;;10.10;99.90;;;;;;5055265;28;20450;-71
2021/12/16 01:04:41;;;;;;;2.97;1.30;;;10.10;99.90;;;;;;5056908;28;20025;-71
2021/12/16 01:34:24;;;;;;;3.47;1.42;;;10.10;99.90;;;;;;5055724;28;20135;-71
2021/12/16 01:50:09;;;;;;;4.38;1.20;;;10.00;99.90;;;;;;5055318;28;20085;-71
2021/12/16 01:53:01;;;;;;;3.17;1.27;;;9.90;99.90;;;;;;5055781;28;20025;-71
2021/12/16 01:55:38;;;;;;;2.28;1.23;;;9.90;99.90;;;;;;5054914;28;20031;-71
2021/12/16 01:58:19;;;;;;;2.67;1.20;;;9.90;99.90;;;;;;5054996;28;20036;-71
2021/12/16 02:00:58;;;;;;;3.50;1.10;;;9.90;99.90;;;;;;5055628;28;20035;-71
2021/12/16 02:03:44;;;;;;;3.35;1.20;;;9.80;99.90;;;;;;5055509;28;20021;-71
2021/12/16 02:08:48;;;;;;;2.67;1.02;;;9.70;99.90;;;;;;5054907;28;20452;-71
2021/12/16 02:11:49;;;;;;;5.82;1.48;;;9.70;99.90;;;;;;5054365;28;20477;-71
2021/12/16 02:35:58;;;;;;;3.22;1.38;;;9.70;99.90;;;;;;5054685;28;20517;-70
2021/12/16 02:38:28;;;;;;;6.53;1.20;;;9.60;99.90;;;;;;5054182;28;20079;-71
2021/12/16 02:40:54;;;;;;;4.80;1.38;;;9.60;99.90;;;;;;5054151;28;20025;-71
2021/12/16 02:44:05;;;;;;;3.17;1.10;;;9.60;99.90;;;;;;5054713;28;20029;-72
2021/12/16 02:48:44;;;;;;;3.00;1.40;;;9.50;99.90;;;;;;5054188;28;20429;-72
2021/12/16 02:51:15;;;;;;;3.88;1.52;;;9.50;99.90;;;;;;5053998;28;20025;-71
2021/12/16 02:53:52;;;;;;;3.67;1.17;;;9.60;99.90;;;;;;5054341;28;20059;-71
2021/12/16 02:56:18;;;;;;;;;;;9.60;99.90;;;;;;5054890;28;20092;-71
2021/12/16 02:58:48;;;;;;;4.20;1.30;;;9.70;99.90;;;;;;5053880;28;19924;-72
2021/12/16 03:01:29;;;;;;;4.60;1.23;;;9.80;99.90;;;;;;5054377;28;20259;-72
2021/12/16 03:03:57;;;;;;;4.95;1.10;;;9.90;99.90;;;;;;5054601;28;20032;-71
2021/12/16 03:06:24;;;;;;;3.88;1.00;;;10.00;99.90;;;;;;5053624;28;20025;-70
2021/12/16 03:08:51;;;;;;;2.67;1.35;;;10.00;99.90;;;;;;5053771;28;20021;-71
2021/12/16 03:11:24;;;;;;;2.60;1.02;;;10.00;99.90;;;;;;5054159;28;20025;-71
2021/12/16 03:16:26;;;;;;;4.45;1.27;;;10.00;99.90;;;;;;5053574;28;20052;-71
2021/12/16 03:19:13;;;;;;;4.93;1.38;;;10.00;99.90;;;;;;5053533;28;20108;-71
2021/12/16 03:21:46;;;;;;;5.05;1.40;;;10.00;99.90;;;;;;5053763;28;20029;-71
2021/12/16 03:28:16;;;;;;;4.90;1.30;;;10.00;99.90;;;;;;4992152;28;20058;-71
2021/12/16 03:33:29;;;;;;;1.70;0.80;;;10.00;99.90;;;;;;4992369;28;20069;-70
2021/12/16 03:36:08;;;;;;;2.78;1.20;;;10.00;99.90;;;;;;4991901;28;20081;-71
2021/12/16 03:38:37;;;;;;;3.80;1.00;;;9.90;99.90;;;;;;4992117;28;20046;-70
2021/12/16 03:41:05;;;;;;;2.40;0.90;;;10.00;99.90;;;;;;4991724;28;20026;-70
2021/12/16 03:43:33;;;;;;;2.80;1.15;;;10.00;99.90;;;;;;4992280;28;20464;-71
2021/12/16 03:48:48;;;;;;;2.17;1.10;;;9.90;99.90;;;;;;4991705;28;20105;-72
2021/12/16 03:52:06;;;;;;;3.03;1.10;;;9.90;99.90;;;;;;4991521;28;20165;-72
2021/12/16 03:54:41;;;;;;;3.20;1.40;;;9.80;99.90;;;;;;4933824;29;20035;-72
2021/12/16 03:57:12;;;;;;;3.63;1.00;;;9.80;99.90;;;;;;4938770;28;20090;-71
2021/12/16 03:59:39;;;;;;;5.13;1.20;;;9.80;99.90;;;;;;4972689;28;20511;-71
2021/12/16 04:02:11;;;;;;;3.20;1.17;;;9.70;99.90;;;;;;4956569;28;20038;-73
2021/12/16 04:04:39;;;;;;;3.33;1.10;;;9.70;99.90;;;;;;4972032;28;20061;-71
2021/12/16 04:07:06;;;;;;;4.07;1.10;;;9.70;99.90;;;;;;4972045;28;20031;-71
2021/12/16 04:09:33;;;;;;;4.60;1.27;;;9.70;99.90;;;;;;4955794;28;20408;-71
2021/12/16 04:12:12;;;;;;;2.83;1.20;;;9.60;99.90;;;;;;4972040;28;20047;-71
2021/12/16 04:14:40;;;;;;;3.47;1.10;;;9.50;99.90;;;;;;4971946;28;20078;-71
2021/12/16 04:17:08;;;;;;;3.03;1.20;;;9.50;99.90;;;;;;4972136;28;20115;-71
2021/12/16 04:19:35;;;;;;;3.45;1.20;;;9.50;99.90;;;;;;4971818;28;20050;-72
2021/12/16 04:22:16;;;;;;;;;;;9.50;99.90;;;;;;4971764;28;20527;-71
2021/12/16 04:24:43;;;;;;;4.68;1.20;;;9.50;99.90;;;;;;4971957;28;19906;-69
2021/12/16 04:27:09;;;;;;;;;;;9.40;99.90;;;;;;4972978;28;20023;-71
2021/12/16 04:29:37;;;;;;;1.67;0.95;;;9.40;99.90;;;;;;4971554;28;20008;-71
2021/12/16 04:32:04;;;;;;;2.90;1.02;;;9.40;99.90;;;;;;5012819;28;20062;-70
2021/12/16 04:34:30;;;;;;;;;;;9.50;99.90;;;;;;5013525;28;20030;-71
2021/12/16 04:36:57;;;;;;;3.27;1.00;;;9.40;99.90;;;;;;5016998;28;20380;-71
2021/12/16 04:39:28;;;;;;;2.67;1.02;;;9.50;99.90;;;;;;5016794;28;20302;-71
2021/12/16 04:41:55;;;;;;;3.83;1.27;;;9.50;99.90;;;;;;5016494;28;20025;-71
2021/12/16 04:44:23;;;;;;;5.70;1.15;;;9.40;99.90;;;;;;5016773;28;20100;-71
2021/12/16 04:46:50;;;;;;;2.28;0.90;;;9.50;99.90;;;;;;5015454;28;20022;-71
2021/12/16 04:49:17;;;;;;;3.72;1.08;;;9.40;99.90;;;;;;5015413;28;20026;-71
2021/12/16 04:51:48;;;;;;;2.75;1.15;;;9.40;99.90;;;;;;5016693;28;20510;-71
2021/12/16 04:54:17;;;;;;;5.25;1.30;;;9.40;99.90;;;;;;5017195;28;20030;-71
2021/12/16 04:56:44;;;;;;;3.00;0.80;;;9.40;99.90;;;;;;5016791;28;20395;-71
2021/12/16 04:59:15;;;;;;;2.42;1.13;;;9.40;99.90;;;;;;5016692;28;20061;-71
2021/12/16 05:01:45;;;;;;;4.15;1.20;;;9.40;99.90;;;;;;5016737;28;20018;-71
2021/12/16 05:04:12;;;;;;;3.40;1.40;;;9.40;99.90;;;;;;5016832;28;20037;-72
2021/12/16 05:06:39;;;;;;;2.70;0.82;;;9.40;99.90;;;;;;5016647;28;20097;-71
2021/12/16 05:09:06;;;;;;;4.10;1.13;;;9.40;99.90;;;;;;5016856;28;20030;-71
2021/12/16 05:11:35;;;;;;;3.88;1.00;;;9.40;99.90;;;;;;5016655;28;20045;-71
2021/12/16 05:14:04;;;;;;;2.63;0.90;;;9.50;99.90;;;;;;5015036;28;20040;-71
2021/12/16 05:16:30;;;;;;;2.80;1.10;;;9.50;99.90;;;;;;5016743;28;20100;-72
2021/12/16 05:18:56;;;;;;;3.53;0.80;;;9.60;99.90;;;;;;5016154;28;20056;-71
2021/12/16 05:21:44;;;;;;;1.70;0.90;;;9.50;99.90;;;;;;5016196;28;20037;-71
2021/12/16 05:24:17;;;;;;;4.75;1.20;;;9.50;99.90;;;;;;5016147;28;20030;-71
2021/12/16 05:26:45;;;;;;;3.63;0.90;;;9.50;99.90;;;;;;5015918;28;20033;-72
2021/12/16 05:29:11;;;;;;;2.28;0.98;;;9.50;99.90;;;;;;5024813;28;20053;-71
2021/12/16 05:31:45;;;;;;;3.35;1.42;;;9.50;99.90;;;;;;5035601;28;20026;-70
2021/12/16 05:34:12;;;;;;;2.22;0.93;;;9.50;99.90;;;;;;5035881;28;20021;-71
2021/12/16 05:36:40;;;;;;;2.10;1.00;;;9.60;99.90;;;;;;5035648;28;20025;-71
2021/12/16 05:39:08;;;;;;;2.00;0.90;;;9.60;99.90;;;;;;5035960;28;20041;-71
2021/12/16 05:41:34;;;;;;;2.70;1.13;;;9.60;99.90;;;;;;5035411;28;20072;-70
2021/12/16 05:44:00;;;;;;;3.30;0.90;;;9.60;99.90;;;;;;5035453;28;20030;-71
2021/12/16 05:46:27;;;;;;;1.42;0.70;;;9.60;99.90;;;;;;5034463;28;20295;-70
2021/12/16 05:48:56;;;;;;;2.25;1.08;;;9.70;99.90;;;;;;5035819;28;20064;-70
2021/12/16 05:51:29;;;;;;;5.22;1.17;;;9.70;99.90;;;;;;5035365;28;20498;-71
2021/12/16 05:53:56;;;;;;;3.65;1.10;;;9.70;99.90;;;;;;5035293;28;20033;-71
2021/12/16 05:56:22;;;;;;;1.95;0.90;;;9.70;99.90;;;;;;5035609;28;20087;-71
2021/12/16 05:58:49;;;;;;;1.98;0.95;;;9.70;99.90;;;;;;5035102;28;20033;-72
2021/12/16 06:01:32;;;;;;;5.10;1.40;;;9.70;99.90;;;;;;5035051;28;20021;-71
2021/12/16 06:03:59;;;;;;;2.03;0.90;;;9.70;99.90;;;;;;5035634;28;20033;-71
2021/12/16 06:06:26;;;;;;;4.32;1.30;;;9.70;99.90;;;;;;5034975;28;20504;-71
2021/12/16 06:08:52;;;;;;;;;;;9.70;99.90;;;;;;5035170;28;20127;-71
2021/12/16 06:11:23;;;;;;;2.53;1.02;;;9.80;99.90;;;;;;5034776;28;19905;-71
2021/12/16 06:14:12;;;;;;;3.45;0.98;;;9.80;99.90;;;;;;5033504;28;20392;-71
2021/12/16 06:22:35;;;;;;;2.65;1.15;;;9.80;99.90;;;;;;5035148;28;20125;-71
2021/12/16 06:27:53;;;;;;;4.28;1.08;;;9.80;99.90;;;;;;5034400;28;20441;-71
2021/12/16 06:30:27;;;;;;;1.80;0.85;;;9.80;99.90;;;;;;5032812;28;20049;-71
2021/12/16 06:32:53;;;;;;;3.70;0.93;;;9.90;99.90;;;;;;5034368;28;20405;-71
2021/12/16 06:35:20;;;;;;;4.97;0.95;;;10.00;99.90;;;;;;5034028;28;20025;-72
2021/12/16 06:37:46;;;;;;;3.42;0.90;;;10.10;99.90;;;;;;5032718;28;20032;-70
2021/12/16 06:40:14;;;;;;;2.43;0.87;;;10.20;99.90;;;;;;5034519;28;20026;-71
2021/12/16 06:42:42;;;;;;;3.55;1.20;;;10.20;99.90;;;;;;5032645;28;20044;-72
2021/12/16 06:45:14;;;;;;;4.70;1.15;;;10.20;99.90;;;;;;5033240;28;20026;-69
2021/12/16 06:50:08;;;;;;;4.40;1.08;;;10.10;99.90;;;;;;5033363;28;20485;-69
2021/12/16 06:52:42;;;;;;;3.42;1.27;;;10.10;99.90;;;;;;5033085;28;20032;-69
2021/12/16 06:55:17;;;;;;;2.92;1.27;;;10.20;99.90;;;;;;5033260;28;20044;-69
2021/12/16 06:57:50;;;;;;;4.60;1.13;;;10.40;99.90;;;;;;5031934;28;20036;-70
2021/12/16 07:00:31;;;;;;;4.90;1.60;;;10.60;99.90;;;;;;5032235;28;20482;-71
2021/12/16 07:03:02;;;;;;;3.95;1.20;;;10.70;99.90;;;;;;5033449;28;20030;-71
2021/12/16 07:05:37;;;;;;;3.30;1.30;;;10.80;99.90;;;;;;5033045;28;20025;-71
2021/12/16 07:08:08;;;;;;;2.42;1.05;;;11.00;99.90;;;;;;5033193;28;20366;-70
2021/12/16 07:10:35;;;;;;;4.47;1.25;;;11.00;99.90;;;;;;5033381;28;20124;-70
2021/12/16 07:13:07;;;;;;;2.95;1.30;;;11.00;99.90;;;;;;5033466;28;20029;-70
2021/12/16 07:15:34;;;;;;;3.90;1.20;;;11.10;99.90;;;;;;5034122;28;20111;-70
2021/12/16 07:18:04;;;;;;;2.50;1.02;;;11.00;99.90;;;;;;5032102;28;20116;-75
2021/12/16 07:20:32;;;;;;;3.83;1.48;;;11.10;99.90;;;;;;5031987;28;20124;-74
2021/12/16 07:23:00;;;;;;;3.65;1.33;;;11.00;99.90;;;;;;5033125;28;20080;-73
2021/12/16 07:25:26;;;;;;;4.72;1.35;;;11.10;99.90;;;;;;5032095;28;20124;-73
2021/12/16 07:27:52;;;;;;;10.38;1.50;;;11.30;99.90;;;;;;5034178;28;20369;-73
2021/12/16 07:30:30;;;;;;;7.18;1.50;;;11.50;99.90;;;;;;5053618;28;20060;-68
2021/12/16 07:32:57;;;;;;;5.35;1.83;;;11.70;99.90;;;;;;5056560;28;20023;-73
2021/12/16 07:35:27;;;;;;;5.28;1.83;;;11.70;99.90;;;;;;5053799;28;20033;-73
2021/12/16 07:37:54;;;;;;;9.80;1.65;;;11.50;99.90;;;;;;5052751;28;20462;-73
2021/12/16 07:40:25;;;;;;;4.38;1.70;;;11.40;99.90;;;;;;5052471;28;20037;-74
2021/12/16 07:43:10;;;;;;;5.40;2.05;;;11.40;99.90;;;;;;5034261;28;20071;-72
2021/12/16 07:45:43;;;;;;;4.35;1.60;;;11.30;99.90;;;;;;5052204;28;20334;-72
2021/12/16 07:48:11;;;;;;;4.40;1.33;;;11.20;99.90;;;;;;5053020;28;20029;-72
2021/12/16 07:50:39;;;;;;;4.78;1.58;;;11.30;99.90;;;;;;5052964;28;20075;-73
2021/12/16 07:53:06;;;;;;;4.10;1.20;;;11.20;99.90;;;;;;5052558;28;20024;-73
2021/12/16 07:55:34;;;;;;;4.32;1.42;;;11.20;99.90;;;;;;5053228;28;20021;-73
2021/12/16 07:58:03;;;;;;;7.55;1.63;;;11.20;99.90;;;;;;5035191;28;20420;-73
2021/12/16 08:00:33;;;;;;;14.48;2.40;;;11.20;99.90;;;;;;5052675;28;20025;-74
2021/12/16 08:03:05;;;;;;;4.07;1.65;;;11.30;99.90;;;;;;5052713;28;20017;-74
2021/12/16 08:05:35;;;;;;;6.45;1.90;;;11.30;99.90;;;;;;5035097;28;20386;-72
2021/12/16 08:08:05;;;;;;;2.85;1.45;;;11.30;99.90;;;;;;5034712;28;20040;-73
2021/12/16 08:10:33;;;;;;;6.30;1.70;;;11.30;99.90;;;;;;5052344;28;20025;-73
2021/12/16 08:13:00;;;;;;;5.30;1.55;;;11.40;99.90;;;;;;5052497;28;20163;-73
2021/12/16 08:15:27;;;;;;;6.90;1.48;;;11.50;99.90;;;;;;5052436;28;20053;-74
2021/12/16 08:17:55;;;;;;;;;;;11.50;99.90;;;;;;5053327;28;20032;-74
2021/12/16 08:20:24;;;;;;;3.92;1.38;;;11.60;99.90;;;;;;5052507;28;19909;-73
2021/12/16 08:22:52;;;;;;;4.65;1.63;;;11.60;99.90;;;;;;5052651;28;20033;-74
2021/12/16 08:25:21;;;;;;;5.40;1.58;;;11.60;99.90;;;;;;5034437;28;20025;-74
2021/12/16 08:27:48;;;;;;;6.30;1.70;;;11.80;99.90;;;;;;5052714;28;20040;-74
2021/12/16 08:30:17;;;;;;;3.15;1.75;;;11.80;99.90;;;;;;5052061;28;20556;-72
2021/12/16 08:32:44;;;;;;;4.03;1.50;;;11.70;99.90;;;;;;5052556;28;20083;-75
2021/12/16 08:35:11;;;;;;;4.40;1.80;;;11.80;99.90;;;;;;5051640;28;20342;-74
2021/12/16 08:37:39;;;;;;;3.95;1.83;;;11.90;99.90;;;;;;5052120;28;20032;-73
2021/12/16 08:40:11;;;;;;;12.00;2.70;;;12.00;99.90;;;;;;5052282;28;20087;-73
2021/12/16 08:42:38;;;;;;;5.22;1.85;;;12.10;99.90;;;;;;5050477;28;20025;-72
2021/12/16 08:45:09;;;;;;;4.30;1.80;;;12.40;99.90;;;;;;5051549;28;20477;-73
2021/12/16 08:47:35;;;;;;;5.53;1.80;;;12.60;99.90;;;;;;5051657;28;20028;-72
2021/12/16 08:50:02;;;;;;;4.10;1.52;;;12.70;99.90;;;;;;5051820;28;20075;-73
2021/12/16 08:52:28;;;;;;;4.40;1.58;;;12.70;99.90;;;;;;5052112;28;20031;-73
2021/12/16 08:54:54;;;;;;;4.22;1.90;;;12.70;99.90;;;;;;5052027;28;20033;-73
2021/12/16 08:57:20;;;;;;;5.57;1.80;;;12.70;99.90;;;;;;5033900;28;20070;-72
2021/12/16 08:59:48;;;;;;;4.07;1.70;;;12.60;99.90;;;;;;5052064;28;20044;-72
2021/12/16 09:02:14;;;;;;;5.80;2.25;;;12.70;99.90;;;;;;5051910;28;20508;-72
2021/12/16 09:04:41;;;;;;;6.60;2.00;;;12.70;99.90;;;;;;5051684;28;20449;-71
2021/12/16 09:07:10;;;;;;;9.75;2.10;;;12.80;99.90;;;;;;5052276;28;20021;-71
2021/12/16 09:09:37;;;;;;;10.80;2.10;;;13.00;99.90;;;;;;5051741;28;20086;-71
2021/12/16 09:12:13;;;;;;;5.22;2.03;;;13.00;99.90;;;;;;5052057;28;20189;-71
2021/12/16 09:14:42;;;;;;;6.90;2.40;;;13.10;99.80;;;;;;5050882;28;20037;-71
2021/12/16 09:17:11;;;;;;;10.23;2.30;;;13.10;99.90;;;;;;5033560;28;20385;-71
2021/12/16 09:19:40;;;;;;;7.53;2.72;;;13.00;99.90;;;;;;5051820;28;20033;-72
2021/12/16 09:22:07;;;;;;;5.20;2.33;;;13.00;99.90;;;;;;5054401;28;20151;-72
2021/12/16 09:24:33;;;;;;;;;;;13.00;99.90;;;;;;5037402;28;20033;-72
2021/12/16 09:27:01;;;;;;;6.75;2.15;;;13.00;99.90;;;;;;5036682;28;20003;-71
2021/12/16 09:29:28;;;;;;;8.45;2.00;;;13.10;99.90;;;;;;5037589;28;20064;-71
2021/12/16 09:31:56;;;;;;;5.22;1.80;;;13.10;99.90;;;;;;5055449;28;20422;-70
2021/12/16 09:34:22;;;;;;;6.15;1.70;;;13.10;99.90;;;;;;5054982;28;20032;-71
2021/12/16 09:36:50;;;;;;;3.97;1.70;;;13.20;99.80;;;;;;5055240;28;20203;-72
2021/12/16 09:39:21;;;;;;;4.90;1.65;;;13.20;99.90;;;;;;5055338;28;20033;-72
2021/12/16 09:41:50;;;;;;;5.80;2.08;;;13.50;99.80;;;;;;5055134;28;20029;-71
2021/12/16 09:44:20;;;;;;;3.80;1.63;;;13.70;99.90;;;;;;5055318;28;20037;-71
2021/12/16 09:46:48;;;;;;;6.00;1.90;;;13.80;99.70;;;;;;5055395;28;20029;-73
2021/12/16 09:49:16;;;;;;;4.88;1.90;;;13.80;99.70;;;;;;5055168;28;20120;-70
2021/12/16 09:51:45;;;;;;;3.80;1.83;;;13.80;99.70;;;;;;5054647;28;20454;-71
2021/12/16 09:54:20;;;;;;;3.88;1.73;;;13.80;99.70;;;;;;5037993;28;20134;-71
2021/12/16 09:56:48;;;;;;;4.38;1.67;;;13.80;99.90;;;;;;5054735;28;20025;-71
2021/12/16 09:59:16;;;;;;;7.15;2.00;;;14.00;99.80;;;;;;5055138;28;20037;-71
2021/12/16 10:01:45;;;;;;;3.55;1.73;;;14.00;99.90;;;;;;5055190;28;20021;-71
2021/12/16 10:04:15;;;;;;;4.60;1.98;;;14.10;99.80;;;;;;5054922;28;20036;-71
2021/12/16 10:06:42;;;;;;;7.25;2.10;;;14.20;99.90;;;;;;5055354;28;20013;-71
2021/12/16 10:09:11;;;;;;;3.83;1.25;;;14.30;99.90;;;;;;5047039;28;20029;-71
2021/12/16 10:11:41;;;;;;;8.70;2.10;;;14.30;99.90;;;;;;5055465;28;20032;-72
2021/12/16 10:19:27;;;;;;;5.13;1.85;;;14.00;99.90;;;;;;5074524;28;20408;-72
2021/12/16 10:21:55;;;;;;;;;;;13.90;99.90;;;;;;5074441;28;20427;-72
2021/12/16 10:24:26;;;;;;;3.65;1.77;;;13.80;99.90;;;;;;5056189;28;20010;-69
2021/12/16 10:27:18;;;;;;;3.72;1.98;;;13.80;99.90;;;;;;5074185;28;20025;-72
2021/12/16 10:30:01;;;;;;;4.18;1.80;;;13.90;99.90;;;;;;5073982;28;20148;-72
2021/12/16 10:32:36;;;;;;;5.75;1.58;;;13.90;99.90;;;;;;5073519;28;20024;-72
2021/12/16 10:35:08;;;;;;;7.15;1.58;;;13.80;99.90;;;;;;5056373;28;20035;-72
2021/12/16 10:37:38;;;;;;;7.18;2.00;;;13.90;99.90;;;;;;5074394;28;20028;-73
2021/12/16 10:40:35;;;;;;;5.10;1.90;;;14.00;99.90;;;;;;5073978;28;20040;-72
2021/12/16 10:43:09;;;;;;;12.05;2.22;;;14.10;99.70;;;;;;5074270;28;20130;-73
2021/12/16 10:45:38;;;;;;;7.15;1.77;;;14.00;99.90;;;;;;5074306;28;20021;-72
2021/12/16 10:48:15;;;;;;;6.15;1.77;;;14.10;99.90;;;;;;5073828;28;20044;-71
2021/12/16 10:50:50;;;;;;;5.45;1.58;;;14.10;99.90;;;;;;5055820;28;20085;-72
2021/12/16 10:53:18;;;;;;;9.07;1.98;;;14.10;99.90;;;;;;5074323;28;20158;-72
2021/12/16 10:56:02;;;;;;;6.82;1.85;;;14.00;99.90;;;;;;5074083;28;20464;-72
2021/12/16 10:59:08;;;;;;;6.47;1.55;;;14.00;99.90;;;;;;5055660;28;20131;-73
2021/12/16 11:01:46;;;;;;;6.97;2.30;;;14.00;99.90;;;;;;4975709;28;20042;-73
2021/12/16 11:04:19;;;;;;;8.30;2.40;;;13.90;99.90;;;;;;4992249;28;20041;-73
2021/12/16 11:07:07;;;;;;;9.18;2.10;;;14.10;99.90;;;;;;4992140;28;20038;-72
2021/12/16 11:09:37;;;;;;;6.10;1.90;;;14.30;99.90;;;;;;4992288;28;20181;-72
2021/12/16 11:12:16;;;;;;;8.23;1.88;;;14.60;99.60;;;;;;4975664;28;20045;-72
2021/12/16 11:14:47;;;;;;;5.88;2.08;;;14.80;99.30;;;;;;4992017;28;20170;-72
2021/12/16 11:17:15;;;;;;;7.60;1.95;;;14.60;99.40;;;;;;4991634;28;20149;-71
2021/12/16 11:19:53;;;;;;;5.43;1.55;;;14.50;99.60;;;;;;4974628;28;20430;-72
2021/12/16 11:22:23;;;;;;;4.45;1.77;;;14.60;99.80;;;;;;4991421;28;20471;-72
2021/12/16 11:24:52;;;;;;;5.93;1.83;;;14.70;99.30;;;;;;4991337;28;20435;-72
2021/12/16 11:27:32;;;;;;;4.50;1.45;;;14.60;98.70;;;;;;4991277;28;20030;-72
2021/12/16 11:30:18;;;;;;;13.65;2.75;;;14.70;98.40;;;;;;4991131;28;20503;-72
2021/12/16 11:32:49;;;;;;;9.27;2.20;;;14.70;98.70;;;;;;4974798;28;20033;-72
2021/12/16 11:35:42;;;;;;;9.63;2.80;;;15.00;98.30;;;;;;4991210;28;20050;-72
2021/12/16 11:38:17;;;;;;;3.30;1.60;;;15.40;97.60;;;;;;5031206;28;20041;-70
2021/12/16 11:40:55;;;;;;;5.30;1.88;;;15.50;96.80;;;;;;5031492;28;20033;-72
2021/12/16 11:43:39;;;;;;;5.78;1.88;;;15.50;96.60;;;;;;5032758;28;20048;-72
2021/12/16 11:46:11;;;;;;;4.35;1.77;;;15.40;96.60;;;;;;5032116;28;20033;-72
2021/12/16 11:48:40;;;;;;;3.05;1.50;;;15.40;96.00;;;;;;5032324;28;20458;-71
2021/12/16 11:51:14;;;;;;;12.95;2.95;;;15.30;95.30;;;;;;5031296;28;20025;-71
2021/12/16 11:53:54;;;;;;;11.57;2.20;;;15.50;95.80;;;;;;5031160;28;20501;-71
2021/12/16 11:56:35;;;;;;;8.73;2.42;;;15.30;95.30;;;;;;5031259;28;20053;-70
2021/12/16 11:59:01;;;;;;;5.07;1.50;;;15.30;96.00;;;;;;5032480;28;20072;-72
2021/12/16 12:01:28;;;;;;;5.35;1.67;;;15.50;95.70;;;;;;5031414;28;20033;-72
2021/12/16 12:04:05;;;;;;;4.55;1.67;;;15.70;94.80;;;;;;5031022;28;20033;-72
2021/12/16 12:06:32;;;;;;;3.97;1.95;;;16.00;94.50;;;;;;5032463;28;20021;-71
2021/12/16 12:08:58;;;;;;;;;;;16.10;94.50;;;;;;5033096;28;20192;-72
2021/12/16 12:11:30;;;;;;;8.60;2.17;;;16.20;93.40;;;;;;5032155;28;19909;-71
2021/12/16 12:14:03;;;;;;;5.63;2.00;;;16.10;93.40;;;;;;5031609;28;20025;-71
2021/12/16 12:16:33;;;;;;;7.60;2.05;;;16.00;93.40;;;;;;5030779;28;20458;-71
2021/12/16 12:19:11;;;;;;;4.20;2.00;;;16.10;93.40;;;;;;5029940;28;20053;-71
2021/12/16 12:22:00;;;;;;;5.47;1.80;;;15.90;93.80;;;;;;5032096;28;20432;-71
2021/12/16 12:24:32;;;;;;;4.65;1.80;;;15.80;94.40;;;;;;5031923;28;20508;-72
2021/12/16 12:27:04;;;;;;;6.38;2.05;;;16.20;94.20;;;;;;5031358;28;20055;-71
2021/12/16 12:29:34;;;;;;;5.03;2.22;;;16.50;93.90;;;;;;5056109;28;20083;-72
2021/12/16 12:32:14;;;;;;;5.47;1.95;;;16.80;93.50;;;;;;5072044;28;20493;-72
2021/12/16 12:34:46;;;;;;;3.85;1.88;;;16.80;93.40;;;;;;5071602;28;20024;-71
2021/12/16 12:37:15;;;;;;;7.53;2.03;;;17.00;93.40;;;;;;5071700;28;20074;-71
2021/12/16 12:39:52;;;;;;;5.93;1.83;;;16.90;93.70;;;;;;5071323;28;20111;-73
2021/12/16 12:42:19;;;;;;;5.53;2.17;;;17.10;94.50;;;;;;5071681;28;20021;-70
2021/12/16 12:44:46;;;;;;;5.72;2.10;;;17.30;94.50;;;;;;5053639;28;20033;-71
2021/12/16 12:47:16;;;;;;;;;;;17.30;96.00;;;;;;5053899;28;20066;-72
2021/12/16 12:49:43;;;;;;;7.88;2.25;;;17.00;95.10;;;;;;5071515;28;19904;-72
2021/12/16 12:52:19;;;;;;;10.13;2.25;;;16.60;95.20;;;;;;5071033;28;20048;-72
2021/12/16 12:55:13;;;;;;;6.07;2.70;;;16.60;95.90;;;;;;5071977;28;20539;-72
2021/12/16 12:57:42;;;;;;;6.18;2.47;;;16.60;96.00;;;;;;5070112;28;20439;-71
2021/12/16 13:00:24;;;;;;;6.25;1.88;;;16.80;95.70;;;;;;5074942;28;20037;-72
2021/12/16 13:03:00;;;;;;;4.15;1.90;;;16.90;95.30;;;;;;5075357;28;20048;-71
2021/12/16 13:05:26;;;;;;;5.38;2.10;;;16.90;95.30;;;;;;5057267;28;20055;-72
2021/12/16 13:07:58;;;;;;;3.10;1.88;;;17.10;95.40;;;;;;5076076;28;20046;-77
2021/12/16 13:10:34;;;;;;;7.38;2.30;;;17.20;94.60;;;;;;5076142;28;20035;-72
2021/12/16 13:16:50;;;;;;;59.65;5.93;;;17.60;94.10;;;;;;5071395;28;20067;-72
2021/12/16 13:28:16;;;;;;;5.65;2.13;;;17.20;93.70;;;;;;5075292;28;20028;-71
2021/12/16 13:30:59;;;;;;;4.90;1.98;;;17.20;94.30;;;;;;5057549;28;20055;-71
2021/12/16 13:33:38;;;;;;;5.63;2.08;;;17.20;94.70;;;;;;5057549;28;20025;-70
2021/12/16 13:36:29;;;;;;;5.68;1.80;;;17.40;94.40;;;;;;5075366;28;20028;-72
2021/12/16 13:38:55;;;;;;;5.88;1.88;;;17.50;93.50;;;;;;5075140;28;20102;-72
2021/12/16 13:41:28;;;;;;;13.80;2.03;;;17.30;93.50;;;;;;5075425;28;20048;-73
2021/12/16 13:44:14;;;;;;;9.43;2.80;;;17.40;93.70;;;;;;5075067;28;20058;-71
2021/12/16 13:47:14;;;;;;;8.50;2.55;;;17.50;93.50;;;;;;5075369;28;20433;-71
2021/12/16 13:58:44;;;;;;;13.90;2.58;;;17.40;94.20;;;;;;5075601;28;20090;-72
2021/12/16 14:08:49;;;;;;;21.67;4.63;;;16.70;95.30;;;;;;5074141;28;20473;-73
2021/12/16 14:18:08;;;;;;;7.68;2.80;;;16.50;96.10;;;;;;5059782;28;20436;-73
2021/12/16 14:23:59;;;;;;;5.03;2.00;;;16.20;96.10;;;;;;5074686;28;20085;-71
2021/12/16 14:26:53;;;;;;;6.47;2.30;;;16.10;95.90;;;;;;5074378;28;20396;-73
2021/12/16 14:37:27;;;;;;;7.53;2.25;;;15.80;95.30;;;;;;5074223;28;20124;-71
2021/12/16 14:40:15;;;;;;;20.77;3.17;;;15.80;95.40;;;;;;5074151;28;20037;-74
2021/12/16 14:48:42;;;;;;;16.60;3.50;;;15.80;95.80;;;;;;5073969;28;20083;-73
2021/12/16 14:51:00;;;;;;;19.67;3.78;;;15.80;95.80;;;;;;5063165;28;20357;-72
2021/12/16 14:53:38;;;;;;;8.95;2.97;;;15.90;95.50;;;;;;5073810;28;20031;-71
2021/12/16 14:56:32;;;;;;;7.88;2.25;;;15.80;95.70;;;;;;5073968;28;20017;-72
2021/12/16 14:59:05;;;;;;;7.95;2.45;;;15.90;95.70;;;;;;5073537;28;20037;-73
2021/12/16 15:01:41;;;;;;;7.20;2.30;;;16.10;95.40;;;;;;5074163;28;20024;-72
2021/12/16 15:04:11;;;;;;;7.90;2.30;;;16.10;95.40;;;;;;5074041;28;20020;-73
2021/12/16 15:06:46;;;;;;;6.65;2.50;;;16.10;95.40;;;;;;5055683;28;20025;-72
2021/12/16 15:09:36;;;;;;;7.78;2.40;;;16.00;95.50;;;;;;5073565;28;20021;-71
2021/12/16 15:12:14;;;;;;;6.68;2.75;;;15.70;96.10;;;;;;5055926;28;20028;-72
2021/12/16 15:31:41;;;;;;;13.35;3.13;;;15.00;97.10;;;;;;5073388;28;20028;-72
2021/12/16 15:40:56;;;;;;;8.27;1.90;;;14.70;96.60;;;;;;5063711;28;20048;-71
2021/12/16 15:43:33;;;;;;;10.25;2.30;;;14.50;97.00;;;;;;5052672;28;20244;-71
2021/12/16 15:46:04;;;;;;;9.40;2.30;;;14.50;97.10;;;;;;5051792;28;20078;-71
2021/12/16 15:48:32;;;;;;;4.28;1.60;;;14.40;97.10;;;;;;5052861;28;20069;-76
2021/12/16 15:51:02;;;;;;;24.55;3.65;;;14.30;96.70;;;;;;5052666;28;20461;-73
2021/12/16 15:53:38;;;;;;;6.07;1.63;;;14.20;97.50;;;;;;5052948;28;20072;-72
2021/12/16 15:56:10;;;;;;;6.40;1.77;;;14.00;97.30;;;;;;5053054;28;20017;-72
2021/12/16 15:58:41;;;;;;;5.03;1.63;;;13.80;97.50;;;;;;5035655;28;20198;-72
2021/12/16 16:01:17;;;;;;;12.68;2.85;;;13.60;97.80;;;;;;5052549;28;20029;-71
2021/12/16 16:03:45;;;;;;;6.70;1.92;;;13.40;98.70;;;;;;5035151;28;20405;-72
2021/12/16 16:06:13;;;;;;;5.03;1.70;;;13.30;98.70;;;;;;5052641;28;20025;-72
2021/12/16 16:08:46;;;;;;;6.82;1.83;;;13.20;98.40;;;;;;5051026;28;20172;-72
2021/12/16 16:11:16;;;;;;;3.45;1.42;;;13.00;98.70;;;;;;5053098;28;20053;-72
2021/12/16 16:14:03;;;;;;;4.93;1.55;;;13.10;98.40;;;;;;5034916;28;20055;-71
2021/12/16 16:16:40;;;;;;;3.47;1.50;;;12.90;98.80;;;;;;5052292;28;20084;-72
2021/12/16 16:19:09;;;;;;;3.28;1.33;;;12.80;98.70;;;;;;5052637;28;20021;-72
2021/12/16 16:21:43;;;;;;;3.50;1.13;;;12.80;98.10;;;;;;5052194;28;20499;-72
2021/12/16 16:24:27;;;;;;;2.00;1.08;;;12.80;97.30;;;;;;5052533;28;20067;-71
2021/12/16 16:26:55;;;;;;;1.85;1.10;;;12.80;96.40;;;;;;5051069;28;20025;-72
2021/12/16 16:29:26;;;;;;;4.15;1.55;;;12.70;96.50;;;;;;5050735;28;20041;-72
2021/12/16 16:31:52;;;;;;;3.67;1.27;;;12.60;96.90;;;;;;5052186;28;20029;-71
2021/12/16 16:34:30;;;;;;;3.80;1.20;;;12.50;96.90;;;;;;5052286;28;20021;-72
2021/12/16 16:37:00;;;;;;;2.97;1.38;;;12.50;96.90;;;;;;5052576;28;20035;-71
2021/12/16 16:39:32;;;;;;;2.38;1.20;;;12.50;97.20;;;;;;5052572;28;20385;-72
2021/12/16 16:42:03;;;;;;;4.00;1.17;;;12.40;97.00;;;;;;5051919;28;20462;-72
2021/12/16 16:44:31;;;;;;;2.70;1.17;;;12.40;96.60;;;;;;5052348;28;20390;-72
2021/12/16 16:47:14;;;;;;;4.53;1.35;;;12.40;96.80;;;;;;5052251;28;20017;-72
2021/12/16 16:49:49;;;;;;;6.00;1.52;;;12.40;97.30;;;;;;5052203;28;20039;-72